Time;durP1;ratioP1;P1;durP2;ratioP2;P2;SDS_P1;SDS_P2;PMS_P1;PMS_P2;Temp;Humidity;BMP_temperature;BMP_pressure;BME280_temperature;BME280_humidity;BME280_pressure;Samples;Min_cycle;Max_cycle;Signal;HPM_P1;HPM_P2
2023/07/02 00:00:13;;;;;;;4.78;2.90;;;;;;;16.51;100.00;99600.78;6148849;28;20524;-89
2023/07/02 00:03:15;;;;;;;6.30;3.00;;;;;;;16.46;100.00;99602.34;6139060;28;20047;-89
2023/07/02 00:06:18;;;;;;;7.78;3.13;;;;;;;16.40;100.00;99596.03;6141778;28;20038;-89
2023/07/02 00:09:20;;;;;;;4.88;2.83;;;;;;;16.37;100.00;99588.53;6145463;28;20035;-89
2023/07/02 00:12:22;;;;;;;5.97;2.55;;;;;;;16.35;100.00;99590.56;6140759;28;20039;-89
2023/07/02 00:15:24;;;;;;;4.47;2.55;;;;;;;16.40;100.00;99587.38;6138763;28;20070;-89
2023/07/02 00:18:33;;;;;;;3.28;2.60;;;;;;;16.35;100.00;99586.13;6139680;28;20137;-89
2023/07/02 00:21:37;;;;;;;5.03;2.97;;;;;;;16.27;100.00;99591.47;6129217;28;20050;-89
2023/07/02 00:24:38;;;;;;;5.57;2.78;;;;;;;16.24;100.00;99594.41;6139701;28;20043;-89
2023/07/02 00:27:40;;;;;;;4.22;2.75;;;;;;;16.17;100.00;99597.94;6137056;28;20097;-90
2023/07/02 00:30:42;;;;;;;6.82;3.03;;;;;;;16.18;100.00;99602.97;6131386;28;20047;-90
2023/07/02 00:33:44;;;;;;;7.10;2.92;;;;;;;16.14;100.00;99607.72;6138380;28;20513;-90
2023/07/02 00:36:46;;;;;;;9.05;2.92;;;;;;;16.15;100.00;99611.97;6136789;28;20557;-89
2023/07/02 00:39:48;;;;;;;3.88;2.90;;;;;;;16.12;100.00;99606.28;6141763;28;20179;-90
2023/07/02 00:42:50;;;;;;;4.68;2.85;;;;;;;15.98;100.00;99614.94;6148408;28;20047;-90
2023/07/02 00:45:52;;;;;;;4.35;2.80;;;;;;;15.91;100.00;99610.44;6140770;28;20149;-90
2023/07/02 00:48:55;;;;;;;8.07;3.20;;;;;;;15.82;100.00;99615.91;6136646;28;20114;-90
2023/07/02 00:51:57;;;;;;;4.63;3.17;;;;;;;15.72;100.00;99616.16;6131672;28;20047;-90
2023/07/02 00:54:59;;;;;;;4.85;3.55;;;;;;;15.58;100.00;99607.28;6148190;28;20047;-90
2023/07/02 00:58:01;;;;;;;7.97;3.70;;;;;;;15.47;100.00;99618.13;6139469;28;20649;-91
2023/07/02 01:01:03;;;;;;;6.50;3.42;;;;;;;15.38;100.00;99611.34;6129365;28;20035;-90
2023/07/02 01:04:07;;;;;;;3.78;3.05;;;;;;;15.31;100.00;99615.66;6128120;28;20050;-90
2023/07/02 01:07:11;;;;;;;4.72;3.50;;;;;;;15.20;100.00;99617.66;6143281;28;20416;-90
2023/07/02 01:10:13;;;;;;;8.20;3.67;;;;;;;15.11;100.00;99625.75;6138139;28;20201;-90
2023/07/02 01:13:19;;;;;;;5.88;3.83;;;;;;;15.06;100.00;99618.44;6149062;28;20050;-90
2023/07/02 01:16:22;;;;;;;5.82;3.45;;;;;;;15.02;100.00;99609.31;6127006;28;20078;-90
2023/07/02 01:19:42;;;;;;;9.75;3.80;;;;;;;14.95;100.00;99609.19;6147774;28;20071;-91
2023/07/02 01:22:44;;;;;;;9.85;3.95;;;;;;;14.88;100.00;99615.25;6136777;28;20043;-90
2023/07/02 01:25:46;;;;;;;8.38;3.90;;;;;;;14.84;100.00;99607.78;6130484;28;20629;-90
2023/07/02 01:28:49;;;;;;;8.60;4.13;;;;;;;14.83;100.00;99614.00;6137869;28;20054;-90
2023/07/02 01:31:50;;;;;;;5.88;3.65;;;;;;;14.77;100.00;99617.28;6143560;28;20075;-90
2023/07/02 01:34:53;;;;;;;8.93;3.65;;;;;;;14.74;100.00;99615.03;6133444;28;20310;-91
2023/07/02 01:37:55;;;;;;;6.28;3.65;;;;;;;14.78;100.00;99629.34;6137852;28;20777;-90
2023/07/02 01:40:57;;;;;;;9.32;3.78;;;;;;;14.79;100.00;99624.94;6133472;28;20043;-90
2023/07/02 01:43:59;;;;;;;9.52;4.05;;;;;;;14.84;100.00;99626.03;6135620;28;20047;-90
2023/07/02 01:47:00;;;;;;;7.75;4.22;;;;;;;14.83;100.00;99634.00;6128860;28;20218;-90
2023/07/02 01:50:04;;;;;;;7.43;4.20;;;;;;;14.90;100.00;99621.94;6137367;28;20175;-90
2023/07/02 01:53:06;;;;;;;8.68;3.95;;;;;;;15.04;100.00;99618.59;6135940;28;20153;-90
2023/07/02 01:56:08;;;;;;;8.13;4.18;;;;;;;15.13;100.00;99621.97;6135131;28;20259;-90
2023/07/02 01:59:10;;;;;;;8.43;4.75;;;;;;;15.10;100.00;99624.09;6137453;28;20138;-91
2023/07/02 02:02:12;;;;;;;11.00;4.80;;;;;;;15.05;100.00;99619.41;6138777;28;20201;-91
2023/07/02 02:05:14;;;;;;;6.40;4.20;;;;;;;15.15;100.00;99625.19;6141284;28;20114;-91
2023/07/02 02:08:16;;;;;;;7.68;4.90;;;;;;;15.22;100.00;99620.91;6141552;28;20044;-90
2023/07/02 02:11:18;;;;;;;9.45;4.65;;;;;;;15.25;100.00;99627.56;6141462;28;20122;-90
2023/07/02 02:14:21;;;;;;;7.47;4.90;;;;;;;15.28;100.00;99630.66;6139604;28;20066;-90
2023/07/02 02:17:23;;;;;;;10.02;5.40;;;;;;;15.34;100.00;99623.13;6129496;28;20066;-91
2023/07/02 02:20:25;;;;;;;9.88;4.88;;;;;;;15.34;100.00;99623.94;6139291;28;20134;-91
2023/07/02 02:23:27;;;;;;;9.57;5.60;;;;;;;15.38;100.00;99616.56;6136788;28;20125;-90
2023/07/02 02:26:28;;;;;;;9.95;5.53;;;;;;;15.42;100.00;99612.63;6140514;28;20113;-90
2023/07/02 02:29:30;;;;;;;15.77;6.00;;;;;;;15.51;100.00;99619.41;6161695;28;20053;-90
2023/07/02 02:32:32;;;;;;;10.48;6.15;;;;;;;15.51;100.00;99617.59;6142317;28;20373;-89
2023/07/02 02:35:34;;;;;;;10.65;6.35;;;;;;;15.54;100.00;99619.06;6139823;28;20416;-90
2023/07/02 02:38:37;;;;;;;8.60;5.85;;;;;;;15.63;100.00;99615.41;6151828;28;20035;-90
2023/07/02 02:41:41;;;;;;;9.23;6.15;;;;;;;15.55;100.00;99614.63;6132378;28;20048;-91
2023/07/02 02:44:43;;;;;;;9.77;6.18;;;;;;;15.49;100.00;99618.75;6139744;28;20551;-90
2023/07/02 02:47:48;;;;;;;10.07;6.55;;;;;;;15.49;100.00;99614.34;6143385;28;20463;-90
2023/07/02 02:50:50;;;;;;;9.68;6.32;;;;;;;15.49;100.00;99618.75;6149655;28;20046;-90
2023/07/02 02:53:52;;;;;;;8.23;5.93;;;;;;;15.52;100.00;99615.81;6148053;28;20118;-90
2023/07/02 02:56:53;;;;;;;7.60;5.80;;;;;;;15.58;100.00;99617.72;6137890;28;20052;-90
2023/07/02 02:59:55;;;;;;;14.35;6.55;;;;;;;15.65;100.00;99617.81;6143976;28;20441;-90
2023/07/02 03:02:58;;;;;;;10.52;6.07;;;;;;;15.66;100.00;99609.00;6139287;28;20093;-91
2023/07/02 03:06:01;;;;;;;8.13;5.88;;;;;;;15.74;100.00;99608.97;6138098;28;20046;-90
2023/07/02 03:09:02;;;;;;;6.93;5.38;;;;;;;15.80;100.00;99600.44;6148962;28;20078;-90
2023/07/02 03:12:05;;;;;;;9.50;5.78;;;;;;;15.82;100.00;99603.66;6135352;28;20038;-91
2023/07/02 03:15:09;;;;;;;11.57;6.15;;;;;;;15.84;100.00;99600.88;6142942;28;20576;-90
2023/07/02 03:18:10;;;;;;;8.63;5.55;;;;;;;15.86;100.00;99601.53;6132951;28;20050;-91
2023/07/02 03:21:12;;;;;;;8.70;6.05;;;;;;;15.85;100.00;99605.09;6139089;28;20047;-90
2023/07/02 03:24:14;;;;;;;7.85;5.53;;;;;;;15.89;100.00;99606.38;6141706;28;20043;-90
2023/07/02 03:27:15;;;;;;;7.47;5.65;;;;;;;15.88;100.00;99610.00;6135733;28;20047;-90
2023/07/02 03:30:17;;;;;;;8.07;5.65;;;;;;;15.91;100.00;99610.44;6139751;28;20043;-90
2023/07/02 03:33:19;;;;;;;9.57;5.78;;;;;;;15.97;100.00;99602.88;6139092;28;20035;-90
2023/07/02 03:36:21;;;;;;;8.70;5.80;;;;;;;16.02;100.00;99598.72;6139030;28;20051;-90
2023/07/02 03:39:22;;;;;;;8.80;5.70;;;;;;;15.97;100.00;99595.84;6139364;28;20358;-89
2023/07/02 03:42:27;;;;;;;14.25;6.32;;;;;;;15.92;100.00;99599.00;6127887;28;20036;-90
2023/07/02 03:45:28;;;;;;;8.90;6.35;;;;;;;15.88;100.00;99615.22;6137862;28;20114;-89
2023/07/02 03:48:31;;;;;;;8.13;6.00;;;;;;;15.80;100.00;99621.31;6154151;28;20417;-89
2023/07/02 03:51:32;;;;;;;10.25;6.55;;;;;;;15.76;100.00;99616.63;6136998;28;20543;-89
2023/07/02 03:54:34;;;;;;;9.55;6.60;;;;;;;15.66;100.00;99619.44;6140907;28;20433;-89
2023/07/02 03:57:36;;;;;;;8.20;6.20;;;;;;;15.63;100.00;99620.63;6138057;28;20409;-89
2023/07/02 04:00:38;;;;;;;10.50;6.38;;;;;;;15.68;100.00;99633.13;6147100;28;20058;-88
2023/07/02 04:03:47;;;;;;;8.27;6.72;;;;;;;15.64;100.00;99652.72;6134675;28;20338;-89
2023/07/02 04:06:49;;;;;;;11.52;7.80;;;;;;;15.63;100.00;99649.31;6137243;28;20489;-87
2023/07/02 04:09:51;;;;;;;11.80;7.68;;;;;;;15.60;100.00;99662.72;6139285;28;20485;-86
2023/07/02 04:12:53;;;;;;;20.98;8.23;;;;;;;15.62;100.00;99650.28;6151163;28;20043;-88
2023/07/02 04:15:55;;;;;;;14.18;7.63;;;;;;;15.56;100.00;99643.16;6138948;28;20039;-88
2023/07/02 04:18:56;;;;;;;12.07;6.20;;;;;;;15.50;100.00;99651.69;6138915;28;20099;-87
2023/07/02 04:21:58;;;;;;;10.98;5.22;;;;;;;15.34;100.00;99636.16;6130356;28;20048;-87
2023/07/02 04:25:00;;;;;;;10.85;6.30;;;;;;;15.20;100.00;99643.72;6136759;28;20047;-88
2023/07/02 04:28:20;;;;;;;11.75;5.75;;;;;;;15.10;100.00;99643.16;6128968;28;20089;-87
2023/07/02 04:31:22;;;;;;;9.70;5.80;;;;;;;14.99;100.00;99636.53;6137280;28;20127;-88
2023/07/02 04:34:24;;;;;;;12.55;5.82;;;;;;;14.88;100.00;99642.16;6141347;28;20046;-87
2023/07/02 04:37:27;;;;;;;9.55;5.80;;;;;;;14.92;100.00;99660.84;6140497;28;20054;-87
2023/07/02 04:40:29;;;;;;;11.50;6.45;;;;;;;14.99;100.00;99667.00;6150515;28;20043;-87
2023/07/02 04:43:32;;;;;;;11.70;6.03;;;;;;;14.99;100.00;99667.81;6138186;28;20398;-87
2023/07/02 04:46:34;;;;;;;13.02;6.57;;;;;;;14.99;100.00;99667.81;6137907;28;20047;-87
2023/07/02 04:49:36;;;;;;;15.23;6.97;;;;;;;15.03;100.00;99682.13;6147501;28;20047;-87
2023/07/02 04:52:38;;;;;;;15.93;5.97;;;;;;;14.95;100.00;99665.72;6144271;28;20047;-87
2023/07/02 04:55:41;;;;;;;10.23;5.65;;;;;;;14.81;100.00;99655.03;6132535;28;20485;-87
2023/07/02 04:58:42;;;;;;;13.13;6.43;;;;;;;14.69;100.00;99659.00;6138158;28;20051;-87
2023/07/02 05:01:44;;;;;;;19.45;6.43;;;;;;;14.70;100.00;99665.81;6138194;28;20141;-87
2023/07/02 05:04:46;;;;;;;11.38;5.75;;;;;;;14.78;100.00;99659.75;6143095;28;20110;-87
2023/07/02 05:07:48;;;;;;;15.57;6.07;;;;;;;14.76;100.00;99656.53;6132766;28;20490;-88
2023/07/02 05:10:50;;;;;;;14.23;5.75;;;;;;;14.82;100.00;99654.03;6139505;28;20505;-87
2023/07/02 05:13:52;;;;;;;15.32;6.05;;;;;;;14.94;100.00;99664.09;6135894;28;20044;-87
2023/07/02 05:16:54;;;;;;;11.85;5.57;;;;;;;15.01;100.00;99659.84;6133512;28;20127;-87
2023/07/02 05:19:55;;;;;;;14.45;6.22;;;;;;;15.06;100.00;99663.53;6142827;28;20222;-87
2023/07/02 05:22:57;;;;;;;14.63;6.07;;;;;;;15.19;100.00;99664.78;6132244;28;20379;-87
2023/07/02 05:25:59;;;;;;;13.85;5.85;;;;;;;15.27;100.00;99670.75;6136033;28;20043;-89
2023/07/02 05:29:01;;;;;;;16.50;5.80;;;;;;;15.36;100.00;99665.50;6138856;28;20042;-88
2023/07/02 05:32:03;;;;;;;11.40;5.38;;;;;;;15.43;100.00;99659.41;6124150;28;20044;-88
2023/07/02 05:35:07;;;;;;;9.98;5.65;;;;;;;15.48;100.00;99653.66;6156942;28;20042;-88
2023/07/02 05:38:08;;;;;;;13.95;6.25;;;;;;;15.35;100.00;99663.84;6130719;28;20039;-88
2023/07/02 05:41:17;;;;;;;13.48;5.55;;;;;;;15.24;100.00;99665.88;6142880;28;20038;-88
2023/07/02 05:44:19;;;;;;;13.82;5.55;;;;;;;15.19;100.00;99670.78;6129277;28;20035;-88
2023/07/02 05:47:20;;;;;;;8.05;4.85;;;;;;;15.17;100.00;99664.13;6132790;28;20051;-89
2023/07/02 05:50:23;;;;;;;12.43;4.97;;;;;;;15.21;100.00;99673.25;6141818;28;20110;-90
2023/07/02 05:53:25;;;;;;;14.93;5.80;;;;;;;15.27;100.00;99675.16;6140677;28;20526;-89
2023/07/02 05:56:27;;;;;;;9.88;4.80;;;;;;;15.37;100.00;99680.16;6143713;28;20043;-88
2023/07/02 05:59:29;;;;;;;14.57;5.65;;;;;;;15.42;100.00;99683.03;6144318;28;20054;-90
2023/07/02 06:02:31;;;;;;;7.78;4.65;;;;;;;15.56;100.00;99686.72;6146268;28;20046;-89
2023/07/02 06:05:33;;;;;;;12.55;5.20;;;;;;;15.65;100.00;99686.47;6141402;28;20573;-89
2023/07/02 06:08:35;;;;;;;19.75;6.43;;;;;;;15.77;100.00;99699.94;6136364;28;20047;-89
2023/07/02 06:11:38;;;;;;;11.88;5.28;;;;;;;15.88;100.00;99693.50;6144386;28;20265;-89
2023/07/02 06:14:40;;;;;;;13.82;5.20;;;;;;;15.87;100.00;99694.47;6135778;28;20505;-90
2023/07/02 06:17:42;;;;;;;11.98;5.38;;;;;;;15.95;100.00;99691.81;6139800;28;20194;-89
2023/07/02 06:20:44;;;;;;;14.18;5.57;;;;;;;15.94;100.00;99698.00;6141489;28;20047;-89
2023/07/02 06:23:46;;;;;;;12.75;5.07;;;;;;;16.03;100.00;99703.97;6139100;28;20059;-91
2023/07/02 06:26:48;;;;;;;14.30;5.78;;;;;;;16.09;100.00;99703.25;6114621;28;20031;-92
2023/07/02 06:29:51;;;;;;;9.98;4.78;;;;;;;16.19;100.00;99705.63;6142667;28;20655;-90
2023/07/02 06:32:54;;;;;;;13.98;4.97;;;;;;;16.32;100.00;99697.97;6131856;28;20051;-91
2023/07/02 06:35:56;;;;;;;15.60;5.88;;;;;;;16.34;100.00;99704.63;6138798;28;20051;-90
2023/07/02 06:38:58;;;;;;;14.68;5.93;;;;;;;16.36;100.00;99720.13;6122468;28;20506;-93
2023/07/02 06:42:00;;;;;;;18.33;6.28;;;;;;;16.41;100.00;99709.16;6141030;28;20042;-90
2023/07/02 06:45:05;;;;;;;11.85;5.28;;;;;;;16.48;100.00;99721.31;6139860;28;20047;-92
2023/07/02 06:48:07;;;;;;;16.58;5.80;;;;;;;16.50;100.00;99719.34;6135982;28;20039;-92
2023/07/02 06:51:09;;;;;;;13.30;6.07;;;;;;;16.53;100.00;99721.59;6119099;28;20074;-91
2023/07/02 06:54:11;;;;;;;11.57;5.03;;;;;;;16.60;100.00;99715.66;6130121;28;20272;-91
2023/07/02 06:57:13;;;;;;;14.32;6.13;;;;;;;16.82;100.00;99716.56;6139241;28;20125;-89
2023/07/02 07:00:15;;;;;;;15.52;6.10;;;;;;;16.97;100.00;99731.25;6143641;28;20043;-94
2023/07/02 07:03:17;;;;;;;12.70;5.70;;;;;;;17.09;100.00;99725.53;6137177;28;20032;-90
2023/07/02 07:06:19;;;;;;;14.38;6.07;;;;;;;17.20;100.00;99723.28;6141431;28;20041;-90
2023/07/02 07:09:23;;;;;;;12.98;5.28;;;;;;;17.32;100.00;99743.75;6137048;28;20050;-91
2023/07/02 07:12:24;;;;;;;11.68;5.45;;;;;;;17.27;100.00;99730.41;6147438;28;20039;-90
2023/07/02 07:15:26;;;;;;;14.30;5.22;;;;;;;17.23;100.00;99735.19;6135322;28;20040;-90
2023/07/02 07:18:28;;;;;;;13.50;5.18;;;;;;;17.26;100.00;99739.22;6137605;28;20238;-91
2023/07/02 07:21:34;;;;;;;11.07;5.65;;;;;;;17.39;100.00;99757.69;6121733;28;20390;-89
2023/07/02 07:24:36;;;;;;;15.50;5.72;;;;;;;17.42;100.00;99755.53;6142636;28;20051;-90
2023/07/02 07:27:38;;;;;;;13.55;5.93;;;;;;;17.48;100.00;99747.91;6138015;28;20054;-90
2023/07/02 07:30:39;;;;;;;16.75;5.90;;;;;;;17.61;100.00;99748.88;6145129;28;20051;-90
2023/07/02 07:33:41;;;;;;;13.73;5.15;;;;;;;17.68;100.00;99759.41;6136806;28;20229;-90
2023/07/02 07:36:43;;;;;;;16.38;6.38;;;;;;;17.64;100.00;99773.88;6146162;28;20063;-90
2023/07/02 07:39:45;;;;;;;16.98;6.10;;;;;;;17.57;100.00;99762.53;6143132;28;20043;-93
2023/07/02 07:42:46;;;;;;;14.57;6.13;;;;;;;17.61;100.00;99750.66;6140056;28;20043;-91
2023/07/02 07:45:49;;;;;;;16.75;6.15;;;;;;;17.82;100.00;99763.81;6153916;28;20501;-92
2023/07/02 07:48:51;;;;;;;12.15;5.30;;;;;;;17.94;100.00;99776.41;6140596;28;20460;-92
2023/07/02 07:51:53;;;;;;;17.33;5.88;;;;;;;17.83;100.00;99767.22;6135123;28;20043;-92
2023/07/02 07:54:54;;;;;;;14.23;6.07;;;;;;;17.94;100.00;99777.22;6119891;28;20051;-90
2023/07/02 07:57:57;;;;;;;17.88;5.82;;;;;;;18.04;100.00;99774.28;6136841;28;20875;-92
2023/07/02 08:00:59;;;;;;;15.80;6.20;;;;;;;18.22;100.00;99785.09;6138907;28;20035;-90
2023/07/02 08:04:00;;;;;;;16.13;5.53;;;;;;;18.30;100.00;99779.72;6125734;28;20495;-91
2023/07/02 08:07:04;;;;;;;14.93;6.00;;;;;;;18.57;100.00;99776.50;6138402;28;20545;-92
2023/07/02 08:10:07;;;;;;;16.00;5.90;;;;;;;18.78;100.00;99791.34;6138769;28;20043;-89
2023/07/02 08:13:10;;;;;;;16.55;5.65;;;;;;;18.73;100.00;99786.66;6140408;28;20034;-94
2023/07/02 08:16:11;;;;;;;13.05;5.70;;;;;;;18.06;100.00;99785.34;6141916;28;20055;-90
2023/07/02 08:19:14;;;;;;;15.20;6.45;;;;;;;18.00;100.00;99786.91;6138603;28;20043;-92
2023/07/02 08:22:15;;;;;;;12.20;5.60;;;;;;;18.17;100.00;99790.09;6133537;28;20039;-93
2023/07/02 08:25:18;;;;;;;17.27;6.05;;;;;;;18.40;100.00;99787.25;6140688;28;20076;-94
2023/07/02 08:28:20;;;;;;;15.20;5.97;;;;;;;18.44;100.00;99812.09;6139888;28;20044;-91
2023/07/02 08:31:21;;;;;;;11.20;5.32;;;;;;;18.27;100.00;99805.50;6140082;28;20171;-91
2023/07/02 08:34:24;;;;;;;16.88;6.53;;;;;;;18.60;100.00;99821.47;6137485;28;20165;-91
2023/07/02 08:37:26;;;;;;;12.05;6.03;;;;;;;18.80;100.00;99811.13;6135705;28;20515;-96
2023/07/02 08:40:28;;;;;;;15.10;6.15;;;;;;;18.66;100.00;99807.59;6147646;28;20039;-94
2023/07/02 08:43:31;;;;;;;16.25;5.72;;;;;;;18.40;100.00;99813.47;6138355;28;20054;-91
2023/07/02 08:46:33;;;;;;;15.25;6.22;;;;;;;18.27;100.00;99813.34;6138786;28;20039;-91
2023/07/02 08:49:35;;;;;;;11.77;6.15;;;;;;;18.30;100.00;99812.97;6120412;28;20501;-96
2023/07/02 08:52:37;;;;;;;10.18;5.45;;;;;;;18.57;100.00;99831.53;6123973;28;20040;-95
2023/07/02 08:55:41;;;;;;;14.20;5.75;;;;;;;18.45;100.00;99834.66;6137026;28;20046;-93
2023/07/02 08:58:44;;;;;;;17.27;5.82;;;;;;;18.18;100.00;99823.16;6138388;28;20149;-91
2023/07/02 09:01:47;;;;;;;15.55;5.93;;;;;;;18.18;100.00;99833.63;6137751;28;20078;-92
2023/07/02 09:05:02;;;;;;;13.23;5.20;;;;;;;18.13;100.00;99815.03;6138917;28;20039;-91
2023/07/02 09:08:04;;;;;;;13.73;5.82;;;;;;;18.12;100.00;99828.34;6144898;28;20875;-92
2023/07/02 09:11:18;;;;;;;13.85;5.85;;;;;;;18.21;100.00;99843.75;6146064;28;20428;-90
2023/07/02 09:14:30;;;;;;;15.50;6.15;;;;;;;18.55;100.00;99839.56;6149800;28;20043;-90
2023/07/02 09:17:33;;;;;;;14.57;5.90;;;;;;;19.09;100.00;99841.59;6139675;28;20060;-91
2023/07/02 09:20:35;;;;;;;11.07;5.30;;;;;;;19.28;100.00;99839.28;6125407;28;20044;-90
2023/07/02 09:23:37;;;;;;;11.77;5.70;;;;;;;19.30;100.00;99842.47;6136329;28;20054;-90
2023/07/02 09:26:42;;;;;;;11.25;5.72;;;;;;;19.17;100.00;99834.56;6135722;28;20279;-89
2023/07/02 09:29:52;;;;;;;15.40;6.10;;;;;;;18.99;100.00;99835.06;6131288;28;20187;-92
2023/07/02 09:32:54;;;;;;;10.43;5.47;;;;;;;19.00;100.00;99832.25;6147889;28;20078;-90
2023/07/02 09:35:56;;;;;;;15.82;6.70;;;;;;;19.32;100.00;99829.97;6148243;28;20039;-90
2023/07/02 09:38:58;;;;;;;14.00;5.32;;;;;;;19.65;100.00;99834.53;6136922;28;20055;-90
2023/07/02 09:42:01;;;;;;;13.48;6.32;;;;;;;19.53;100.00;99861.38;6143117;28;20057;-90
2023/07/02 09:45:07;;;;;;;11.75;5.90;;;;;;;19.22;100.00;99845.28;6140662;28;20043;-89
2023/07/02 09:48:20;;;;;;;15.45;6.35;;;;;;;19.15;100.00;99832.13;6132756;28;20390;-91
2023/07/02 09:51:24;;;;;;;11.88;4.97;;;;;;;19.45;100.00;99845.81;6131849;28;20046;-90
2023/07/02 09:54:28;;;;;;;11.43;5.28;;;;;;;19.49;100.00;99843.59;6147460;28;20047;-91
2023/07/02 09:57:32;;;;;;;13.70;5.65;;;;;;;19.86;100.00;99855.44;6140125;28;20711;-92
2023/07/02 10:00:35;;;;;;;12.65;5.28;;;;;;;20.24;100.00;99852.28;6145597;28;20054;-91
2023/07/02 10:03:39;;;;;;;10.30;5.35;;;;;;;20.26;100.00;99859.97;6141048;28;20062;-91
2023/07/02 10:06:56;;;;;;;13.23;4.95;;;;;;;20.15;100.00;99850.88;6139114;28;20043;-90
2023/07/02 10:09:59;;;;;;;10.73;5.05;;;;;;;20.17;100.00;99851.44;6141598;28;20040;-90
2023/07/02 10:13:01;;;;;;;13.60;5.50;;;;;;;20.18;100.00;99842.56;6128472;28;20050;-91
2023/07/02 10:16:05;;;;;;;12.77;5.60;;;;;;;19.99;100.00;99863.34;6129750;28;20050;-90
2023/07/02 10:19:09;;;;;;;11.10;4.80;;;;;;;20.05;100.00;99855.69;6134603;28;20047;-92
2023/07/02 10:22:11;;;;;;;10.98;5.40;;;;;;;20.29;100.00;99863.00;6130543;28;20107;-92
2023/07/02 10:25:31;;;;;;;16.92;5.22;;;;;;;20.18;100.00;99872.28;6119623;28;20044;-91
2023/07/02 10:28:33;;;;;;;8.77;5.00;;;;;;;20.08;100.00;99874.50;6127374;28;20521;-92
2023/07/02 10:31:34;;;;;;;8.70;4.43;;;;;;;20.10;100.00;99874.28;6129087;28;20054;-91
2023/07/02 10:34:36;;;;;;;13.80;5.65;;;;;;;20.08;100.00;99873.69;6110234;28;20043;-91
2023/07/02 10:37:38;;;;;;;11.35;5.18;;;;;;;20.08;100.00;99874.50;6139706;28;20051;-91
2023/07/02 10:40:40;;;;;;;10.65;4.93;;;;;;;19.87;100.00;99878.06;6121552;28;20094;-94
2023/07/02 10:43:41;;;;;;;12.73;4.75;;;;;;;19.69;100.00;99881.25;6111154;28;20036;-93
2023/07/02 10:46:47;;;;;;;12.52;4.93;;;;;;;19.87;100.00;99887.78;6125922;28;20253;-90
2023/07/02 10:49:50;;;;;;;11.73;5.38;;;;;;;20.16;100.00;99891.91;6112768;28;20382;-92
2023/07/02 10:52:52;;;;;;;10.45;4.82;;;;;;;20.38;100.00;99898.59;6141459;28;20549;-90
2023/07/02 10:55:56;;;;;;;7.93;4.32;;;;;;;20.48;100.00;99882.44;6138368;28;20058;-92
2023/07/02 10:59:01;;;;;;;11.65;5.07;;;;;;;20.36;100.00;99886.66;6139094;28;20497;-93
2023/07/02 11:02:03;;;;;;;11.77;4.63;;;;;;;20.20;100.00;99890.50;6154369;28;20409;-90
2023/07/02 11:05:06;;;;;;;8.70;4.35;;;;;;;19.84;100.00;99885.53;6131692;28;20556;-94
2023/07/02 11:08:09;;;;;;;11.30;5.22;;;;;;;19.69;100.00;99886.50;6147007;28;20047;-88
2023/07/02 11:11:11;;;;;;;11.90;5.82;;;;;;;19.42;100.00;99888.16;6135565;28;20602;-92
2023/07/02 11:14:13;;;;;;;12.45;4.85;;;;;;;19.46;100.00;99878.09;6141348;28;20385;-88
2023/07/02 11:17:14;;;;;;;13.60;5.55;;;;;;;19.92;100.00;99875.66;6149573;28;20055;-89
2023/07/02 11:20:16;;;;;;;13.43;5.50;;;;;;;20.41;100.00;99887.66;6142725;28;20498;-87
2023/07/02 11:23:22;;;;;;;12.25;4.88;;;;;;;20.82;100.00;99889.34;6139304;28;20039;-90
2023/07/02 11:26:35;;;;;;;12.55;5.50;;;;;;;20.96;100.00;99894.56;6153163;28;20054;-89
2023/07/02 11:29:36;;;;;;;9.52;4.93;;;;;;;20.88;100.00;99898.22;6142715;28;20079;-87
2023/07/02 11:32:50;;;;;;;11.48;5.45;;;;;;;20.51;100.00;99900.44;6130950;28;20502;-88
2023/07/02 11:35:52;;;;;;;9.80;4.50;;;;;;;20.00;100.00;99891.25;6136589;28;20051;-89
2023/07/02 11:38:55;;;;;;;11.45;5.40;;;;;;;20.00;100.00;99912.28;6128268;28;20529;-89
2023/07/02 11:41:57;;;;;;;8.88;4.70;;;;;;;20.05;100.00;99906.44;6144567;28;20038;-88
2023/07/02 11:44:59;;;;;;;10.73;4.65;;;;;;;20.76;100.00;99905.91;6148841;28;20118;-88
2023/07/02 11:48:01;;;;;;;13.82;4.50;;;;;;;21.07;100.00;99905.28;6151594;28;20043;-88
2023/07/02 11:51:03;;;;;;;12.43;4.78;;;;;;;20.87;100.00;99912.41;6139794;28;20043;-88
2023/07/02 11:54:05;;;;;;;11.40;4.88;;;;;;;20.68;100.00;99910.59;6140977;28;20047;-90
2023/07/02 11:57:08;;;;;;;10.13;4.95;;;;;;;20.41;100.00;99892.13;6145872;28;20042;-89
2023/07/02 12:00:10;;;;;;;9.52;5.30;;;;;;;20.61;100.00;99898.22;6145020;28;20047;-88
2023/07/02 12:03:12;;;;;;;10.90;5.15;;;;;;;21.19;100.00;99896.75;6137259;28;20048;-89
2023/07/02 12:06:14;;;;;;;13.27;4.95;;;;;;;21.87;100.00;99899.78;6126119;28;20051;-87
2023/07/02 12:09:16;;;;;;;14.25;5.50;;;;;;;22.00;100.00;99914.72;6134385;28;20043;-89
2023/07/02 12:12:18;;;;;;;9.10;5.15;;;;;;;21.43;100.00;99909.28;6132018;28;20494;-88
2023/07/02 12:15:20;;;;;;;10.18;4.70;;;;;;;21.53;100.00;99922.00;6147736;28;20166;-88
2023/07/02 12:18:23;;;;;;;12.85;5.03;;;;;;;21.40;100.00;99924.69;6147508;28;20039;-89
2023/07/02 12:21:25;;;;;;;8.20;4.55;;;;;;;21.58;100.00;99924.81;6140814;28;20082;-89
2023/07/02 12:24:27;;;;;;;12.05;4.53;;;;;;;21.76;100.00;99915.44;6139392;28;20733;-91
2023/07/02 12:27:29;;;;;;;10.73;4.90;;;;;;;22.01;100.00;99926.06;6132136;28;20149;-89
2023/07/02 12:30:31;;;;;;;9.98;4.90;;;;;;;21.63;100.00;99925.00;6150483;28;20086;-91
2023/07/02 12:33:33;;;;;;;11.70;4.53;;;;;;;21.23;100.00;99914.56;6140541;28;20169;-88
2023/07/02 12:36:34;;;;;;;11.15;4.75;;;;;;;21.36;100.00;99921.63;6142318;28;20113;-89
2023/07/02 12:39:36;;;;;;;11.13;5.30;;;;;;;22.04;100.00;99918.56;6136496;28;20102;-87
2023/07/02 12:42:39;;;;;;;12.57;5.05;;;;;;;22.90;100.00;99916.31;6122201;28;20050;-89
2023/07/02 12:45:40;;;;;;;11.13;4.75;;;;;;;23.12;99.16;99914.94;6138038;28;20043;-88
2023/07/02 12:48:42;;;;;;;10.43;5.00;;;;;;;22.85;100.00;99911.69;6136154;28;20048;-88
2023/07/02 12:51:43;;;;;;;10.98;5.25;;;;;;;22.65;100.00;99918.97;6136415;28;20051;-88
2023/07/02 12:54:45;;;;;;;7.47;4.82;;;;;;;22.95;100.00;99917.28;6143498;28;20254;-90
2023/07/02 12:57:47;;;;;;;12.60;5.20;;;;;;;23.16;100.00;99916.13;6144440;28;20047;-88
2023/07/02 13:00:49;;;;;;;8.98;4.70;;;;;;;23.45;96.15;99916.41;6148174;28;20050;-88
2023/07/02 13:03:51;;;;;;;12.82;5.28;;;;;;;23.11;98.34;99923.88;6152137;28;20046;-88
2023/07/02 13:06:53;;;;;;;10.77;4.50;;;;;;;22.32;100.00;99923.47;6131969;28;20553;-88
2023/07/02 13:09:54;;;;;;;10.40;5.35;;;;;;;22.54;100.00;99931.03;6131320;28;20035;-88
2023/07/02 13:12:56;;;;;;;10.98;5.05;;;;;;;23.21;99.80;99928.66;6137367;28;20536;-88
2023/07/02 13:16:07;;;;;;;10.90;4.65;;;;;;;23.54;94.60;99936.22;6132109;28;20070;-89
2023/07/02 13:19:09;;;;;;;10.52;4.22;;;;;;;23.29;94.38;99927.56;6138039;28;20050;-87
2023/07/02 13:22:11;;;;;;;11.10;4.90;;;;;;;22.92;91.03;99936.19;6134979;28;20500;-88
2023/07/02 13:25:13;;;;;;;12.30;5.05;;;;;;;22.97;100.00;99925.84;6137229;28;20040;-88
2023/07/02 13:28:16;;;;;;;9.85;4.93;;;;;;;23.52;97.35;99937.47;6138809;28;20178;-87
2023/07/02 13:31:17;;;;;;;11.30;5.85;;;;;;;23.81;96.13;99943.88;6137206;28;20044;-87
2023/07/02 13:34:19;;;;;;;8.27;4.40;;;;;;;23.92;85.77;99948.38;6139955;28;20082;-88
2023/07/02 13:37:21;;;;;;;8.25;4.45;;;;;;;23.82;82.92;99930.41;6135217;28;20909;-88
2023/07/02 13:40:23;;;;;;;10.07;4.70;;;;;;;23.92;85.84;99944.94;6140253;28;20039;-90
2023/07/02 13:43:26;;;;;;;7.85;4.65;;;;;;;24.17;85.47;99937.69;6134788;28;20126;-88
2023/07/02 13:46:28;;;;;;;8.40;4.28;;;;;;;24.18;83.84;99941.16;6140847;28;20036;-89
2023/07/02 13:49:31;;;;;;;9.68;4.65;;;;;;;23.92;85.60;99929.09;6145726;28;20039;-88
2023/07/02 13:52:33;;;;;;;8.05;4.00;;;;;;;23.53;95.49;99944.38;6131648;28;20051;-88
2023/07/02 13:55:35;;;;;;;8.23;4.20;;;;;;;23.60;84.85;99951.22;6141496;28;20051;-89
2023/07/02 13:58:55;;;;;;;10.05;4.53;;;;;;;23.28;90.88;99947.91;6153887;28;20043;-88
2023/07/02 14:01:57;;;;;;;10.57;4.20;;;;;;;23.40;91.12;99938.22;6139423;28;20036;-88